Time;durP1;ratioP1;P1;durP2;ratioP2;P2;SDS_P1;SDS_P2;PMS_P1;PMS_P2;Temp;Humidity;BMP_temperature;BMP_pressure;BME280_temperature;BME280_humidity;BME280_pressure;Samples;Min_cycle;Max_cycle;Signal;HPM_P1;HPM_P2
2021/12/20 05:32:08;;;;;;;;;38.25;31.00;;;;;8.73;65.29;102229.78;4983422;28;45598;-77
2021/12/20 05:34:34;;;;;;;;;44.25;30.50;;;;;8.66;65.18;102225.44;4977007;28;45513;-78
2021/12/20 05:37:00;;;;;;;;;37.75;33.75;;;;;8.67;65.52;102238.78;4977117;28;45383;-78
2021/12/20 05:39:26;;;;;;;;;33.75;28.00;;;;;8.69;65.33;102233.38;4975299;28;46617;-78
2021/12/20 05:41:51;;;;;;;;;32.25;27.25;;;;;8.71;65.58;102227.13;4976531;28;45348;-77
2021/12/20 05:44:17;;;;;;;;;33.50;27.25;;;;;8.76;65.33;102226.19;4976788;28;45450;-78
2021/12/20 05:46:42;;;;;;;;;35.50;27.50;;;;;8.76;65.67;102223.50;4975256;28;46480;-77
2021/12/20 05:49:07;;;;;;;;;36.75;29.50;;;;;8.72;64.88;102212.84;4976757;28;46175;-78
2021/12/20 05:51:33;;;;;;;;;31.50;26.50;;;;;8.71;65.41;102224.44;4977656;28;45353;-78
2021/12/20 05:53:58;;;;;;;;;28.00;24.00;;;;;8.71;65.68;102224.44;4977549;28;45444;-77
2021/12/20 05:56:23;;;;;;;;;33.75;27.25;;;;;8.82;65.20;102231.44;4976918;28;45557;-77
2021/12/20 05:58:49;;;;;;;;;27.00;23.75;;;;;8.82;65.63;102228.75;4976503;28;45364;-77
2021/12/20 06:01:14;;;;;;;;;31.75;26.50;;;;;8.83;65.10;102234.09;4976608;28;45234;-76
2021/12/20 06:03:40;;;;;;;;;26.75;26.00;;;;;8.83;65.05;102233.22;4976642;28;45199;-77
2021/12/20 06:06:06;;;;;;;;;28.75;24.00;;;;;8.82;64.71;102232.31;4975364;28;47587;-78
2021/12/20 06:08:31;;;;;;;;;28.25;26.00;;;;;8.64;64.31;102187.13;4976510;28;45931;-76
2021/12/20 06:10:57;;;;;;;;;36.75;30.25;;;;;8.77;64.75;102219.91;4976673;28;45305;-77
2021/12/20 06:13:22;;;;;;;;;26.50;24.00;;;;;8.81;64.34;102227.88;4974964;28;45314;-76
2021/12/20 06:15:47;;;;;;;;;38.75;29.25;;;;;8.78;64.13;102227.91;4976375;28;45402;-77
2021/12/20 06:18:13;;;;;;;;;27.25;20.50;;;;;8.68;63.54;102229.81;4975768;28;45979;-78
2021/12/20 06:20:42;;;;;;;;;35.75;28.75;;;;;8.58;64.42;102230.88;4976040;28;45503;-77
2021/12/20 06:23:07;;;;;;;;;27.75;24.75;;;;;8.28;64.47;102186.72;4976246;28;45549;-77
2021/12/20 06:25:33;;;;;;;;;22.25;20.25;;;;;8.56;64.58;102226.47;4975692;28;45547;-79
2021/12/20 06:27:58;;;;;;;;;31.50;27.00;;;;;8.46;64.92;102220.34;4976035;28;45515;-77
2021/12/20 06:30:24;;;;;;;;;23.00;20.75;;;;;8.50;65.31;102222.09;4976820;28;45298;-78
2021/12/20 06:32:49;;;;;;;;;31.00;23.50;;;;;8.52;64.80;102227.41;4976414;28;45545;-78
2021/12/20 06:35:14;;;;;;;;;27.75;24.50;;;;;8.43;64.44;102208.81;4975265;28;45515;-78
2021/12/20 06:37:43;;;;;;;;;29.00;21.75;;;;;8.65;64.79;102251.28;4975600;28;46190;-78
2021/12/20 06:40:09;;;;;;;;;25.25;20.50;;;;;8.61;63.60;102246.88;4975300;28;45490;-79
2021/12/20 06:42:37;;;;;;;;;26.00;20.25;;;;;8.51;63.96;102242.53;4975445;28;45293;-78
2021/12/20 06:45:06;;;;;;;;;18.50;14.25;;;;;8.51;64.24;102236.31;4975277;28;46197;-79
2021/12/20 06:47:34;;;;;;;;;18.00;13.75;;;;;8.60;64.48;102254.91;4975712;28;45370;-77
2021/12/20 06:49:59;;;;;;;;;26.00;21.00;;;;;8.52;64.66;102238.09;4975680;28;45515;-78
2021/12/20 06:52:25;;;;;;;;;19.25;19.25;;;;;8.48;64.42;102247.06;4975892;28;45416;-78
2021/12/20 06:54:52;;;;;;;;;24.75;21.25;;;;;8.61;63.76;102268.25;4975725;28;45349;-79
2021/12/20 06:57:17;;;;;;;;;23.25;16.50;;;;;8.52;63.95;102240.75;4975629;28;47114;-77
2021/12/20 06:59:43;;;;;;;;;25.75;20.00;;;;;8.42;63.73;102234.66;4976874;28;45301;-81
2021/12/20 07:02:08;;;;;;;;;26.50;17.50;;;;;8.46;63.92;102249.75;4975364;28;45357;-76
2021/12/20 07:04:33;;;;;;;;;25.25;20.00;;;;;8.48;63.70;102253.28;4976100;28;45539;-74
2021/12/20 07:06:59;;;;;;;;;23.25;18.25;;;;;8.41;63.76;102250.72;4975702;28;45348;-73
2021/12/20 07:09:24;;;;;;;;;19.75;18.25;;;;;8.48;64.21;102263.09;4975233;28;45479;-72
2021/12/20 07:11:50;;;;;;;;;24.50;20.75;;;;;8.42;64.09;102261.38;4975099;28;45523;-72
2021/12/20 07:14:15;;;;;;;;;25.50;16.75;;;;;8.33;64.05;102256.16;4975722;28;45465;-73
2021/12/20 07:16:41;;;;;;;;;29.00;20.25;;;;;8.39;64.51;102269.44;4975080;28;45369;-75
2021/12/20 07:19:07;;;;;;;;;29.00;21.50;;;;;8.40;64.42;102263.19;4975060;28;45318;-75
2021/12/20 07:21:32;;;;;;;;;35.25;26.50;;;;;8.40;63.78;102267.66;4975073;28;45326;-72
2021/12/20 07:23:58;;;;;;;;;26.25;15.75;;;;;8.43;63.85;102271.16;4975001;28;45511;-74
2021/12/20 07:26:23;;;;;;;;;27.25;20.25;;;;;8.44;64.04;102256.00;4974652;28;45861;-73
2021/12/20 07:28:49;;;;;;;;;25.75;21.00;;;;;8.43;63.68;102265.81;4972334;28;45814;-71
2021/12/20 07:31:14;;;;;;;;;24.00;21.25;;;;;8.34;63.79;102258.78;4967060;28;45868;-71
2021/12/20 07:33:41;;;;;;;;;21.75;19.50;;;;;8.40;63.82;102262.31;4971274;28;46106;-73
2021/12/20 07:36:07;;;;;;;;;22.75;14.50;;;;;8.40;63.94;102259.66;4972950;28;45464;-75
2021/12/20 07:38:34;;;;;;;;;28.00;22.00;;;;;8.37;64.33;102260.56;4974633;28;45337;-74
2021/12/20 07:41:01;;;;;;;;;27.25;25.25;;;;;8.41;64.14;102266.75;4974626;28;45611;-74
2021/12/20 07:43:26;;;;;;;;;23.00;20.25;;;;;8.43;63.99;102264.94;4974860;28;45585;-74
2021/12/20 07:45:52;;;;;;;;;24.50;21.25;;;;;8.21;64.22;102240.25;4973805;28;45309;-71
2021/12/20 07:48:19;;;;;;;;;25.75;22.50;;;;;8.37;64.22;102268.56;4976770;28;45348;-72
2021/12/20 07:50:46;;;;;;;;;30.00;24.25;;;;;8.37;64.39;102265.91;4978289;28;45361;-73
2021/12/20 07:53:12;;;;;;;;;34.00;25.50;;;;;8.37;64.40;102273.91;4978371;28;46685;-74
2021/12/20 07:55:38;;;;;;;;;27.00;24.25;;;;;8.30;64.38;102259.72;4976808;28;47089;-73
2021/12/20 07:58:05;;;;;;;;;26.50;22.75;;;;;8.25;64.28;102253.53;4976262;28;45463;-72
2021/12/20 08:00:31;;;;;;;;;21.50;13.50;;;;;8.33;64.20;102272.22;4977911;28;45181;-75
2021/12/20 08:02:57;;;;;;;;;29.00;21.00;;;;;8.33;64.46;102277.56;4976191;28;45233;-75
2021/12/20 08:05:24;;;;;;;;;27.00;22.50;;;;;8.27;64.36;102281.13;4977683;28;45194;-75
2021/12/20 08:07:50;;;;;;;;;23.00;20.00;;;;;8.29;63.85;102278.44;4977086;28;45329;-74
2021/12/20 08:10:22;;;;;;;;;27.50;21.25;;;;;8.28;63.85;102271.31;4973517;28;45657;-76
2021/12/20 08:12:48;;;;;;;;;26.25;20.75;;;;;8.23;64.52;102249.13;4973730;28;45578;-79
2021/12/20 08:15:14;;;;;;;;;27.25;22.75;;;;;8.35;64.57;102267.69;4977279;28;45496;-81
2021/12/20 08:17:41;;;;;;;;;28.00;22.50;;;;;8.34;63.96;102261.47;4973880;28;45407;-77
2021/12/20 08:20:13;;;;;;;;;28.50;24.00;;;;;8.31;63.88;102261.53;4978305;28;45501;-78
2021/12/20 08:22:40;;;;;;;;;27.50;24.00;;;;;8.31;63.75;102261.53;4980465;28;45281;-78
2021/12/20 08:25:07;;;;;;;;;31.50;23.75;;;;;8.39;63.97;102273.91;4979173;28;45438;-79
2021/12/20 08:27:33;;;;;;;;;26.25;21.25;;;;;8.37;63.63;102279.25;4979679;28;45904;-78
2021/12/20 08:29:59;;;;;;;;;30.75;26.50;;;;;8.41;63.52;102283.69;4980639;28;45379;-78
2021/12/20 08:32:26;;;;;;;;;28.25;22.00;;;;;8.45;63.70;102290.75;4979775;28;45445;-78
2021/12/20 08:34:53;;;;;;;;;23.50;19.00;;;;;8.50;63.82;102293.38;4978290;28;45479;-78
2021/12/20 08:37:19;;;;;;;;;31.50;22.50;;;;;8.51;63.57;102298.66;4977259;28;45467;-78
2021/12/20 08:39:44;;;;;;;;;25.50;22.00;;;;;8.47;63.28;102299.63;4977957;28;45586;-78
2021/12/20 08:42:09;;;;;;;;;35.00;22.75;;;;;8.44;63.20;102302.31;4975887;28;46151;-79
2021/12/20 08:44:35;;;;;;;;;25.75;19.25;;;;;8.45;63.08;102300.53;4976255;28;47073;-79
2021/12/20 08:47:01;;;;;;;;;26.75;25.75;;;;;8.44;63.44;102296.09;4976727;28;45338;-80
2021/12/20 08:49:27;;;;;;;;;29.25;26.50;;;;;8.43;62.89;102302.34;4979833;28;45376;-79
2021/12/20 08:51:54;;;;;;;;;25.25;21.25;;;;;8.24;62.76;102275.84;4978781;28;46031;-78
2021/12/20 08:54:20;;;;;;;;;29.75;25.75;;;;;8.32;63.09;102294.47;4977686;28;45447;-79
2021/12/20 08:56:46;;;;;;;;;29.50;26.25;;;;;8.29;63.08;102294.47;4975954;28;45492;-79
2021/12/20 08:59:11;;;;;;;;;28.25;23.25;;;;;8.27;62.63;102305.16;4976859;28;45662;-77
2021/12/20 09:01:37;;;;;;;;;32.00;21.25;;;;;8.30;62.62;102315.84;4977271;28;45611;-78
2021/12/20 09:04:07;;;;;;;;;21.75;13.75;;;;;8.28;62.72;102312.28;4976802;28;45976;-80
2021/12/20 09:06:38;;;;;;;;;27.75;21.75;;;;;8.31;62.58;102319.44;4976635;28;45431;-73
2021/12/20 09:09:04;;;;;;;;;28.50;24.75;;;;;8.19;62.50;102285.66;4977671;28;45247;-80
2021/12/20 09:11:30;;;;;;;;;25.25;21.50;;;;;8.31;62.06;102322.09;4978431;28;45424;-80
2021/12/20 09:13:58;;;;;;;;;26.50;21.50;;;;;8.16;62.55;102292.84;4978876;28;45685;-80
2021/12/20 09:16:25;;;;;;;;;20.00;17.50;;;;;8.23;62.79;102316.81;4981305;28;45400;-80
2021/12/20 09:18:51;;;;;;;;;26.00;20.25;;;;;8.23;62.72;102306.13;4979947;28;45345;-79
2021/12/20 09:21:17;;;;;;;;;25.75;20.75;;;;;8.16;62.58;102292.84;4978176;28;45833;-77
2021/12/20 09:23:45;;;;;;;;;31.50;24.25;;;;;8.31;62.44;102306.94;4979106;28;45456;-79
2021/12/20 09:26:11;;;;;;;;;32.75;24.75;;;;;8.29;62.43;102290.00;4977161;28;45621;-78
2021/12/20 09:28:41;;;;;;;;;29.50;22.75;;;;;8.35;61.95;102310.47;4978917;28;45483;-76
2021/12/20 09:31:07;;;;;;;;;29.25;23.00;;;;;8.30;61.86;102290.91;4974821;28;45518;-78
2021/12/20 09:33:33;;;;;;;;;29.00;24.50;;;;;8.43;62.05;102310.34;4975502;28;46257;-79
2021/12/20 09:35:59;;;;;;;;;18.00;12.25;;;;;8.42;61.37;102306.81;4976469;28;45565;-81
2021/12/20 09:38:28;;;;;;;;;17.00;14.50;;;;;8.36;61.38;102306.88;4975251;28;45450;-80
2021/12/20 09:43:43;;;;;;;;;28.00;22.00;;;;;8.30;61.67;102310.50;4981948;28;45544;-79
2021/12/20 09:46:10;;;;;;;;;30.50;24.00;;;;;8.37;61.40;102319.34;4980597;28;45509;-79
2021/12/20 09:48:36;;;;;;;;;28.00;23.75;;;;;8.37;61.71;102311.34;4979461;28;44939;-78
2021/12/20 09:51:03;;;;;;;;;30.75;27.25;;;;;8.42;61.53;102320.16;4978148;28;45482;-78
2021/12/20 09:53:29;;;;;;;;;34.25;24.00;;;;;8.37;61.46;102305.09;4979282;28;45716;-80
2021/12/20 09:55:58;;;;;;;;;31.25;25.25;;;;;8.43;61.76;102319.25;4979400;28;45420;-78
2021/12/20 09:58:25;;;;;;;;;26.00;22.75;;;;;8.43;61.68;102308.56;4974069;28;45554;-81
2021/12/20 10:00:51;;;;;;;;;19.50;15.75;;;;;8.44;61.86;102313.03;4981693;28;45500;-78
2021/12/20 10:03:21;;;;;;;;;29.75;25.50;;;;;8.50;61.21;102317.44;4979407;28;46047;-79
2021/12/20 10:05:54;;;;;;;;;18.25;16.75;;;;;8.49;61.60;102329.91;4977880;28;45495;-80
2021/12/20 10:08:26;;;;;;;;;30.75;21.50;;;;;8.39;61.76;102306.84;4975997;28;45601;-79
2021/12/20 10:10:52;;;;;;;;;25.25;22.25;;;;;8.46;61.33;102319.25;4975707;28;45419;-79
2021/12/20 10:13:32;;;;;;;;;26.75;22.75;;;;;8.39;61.21;102301.50;4977234;28;45542;-77
2021/12/20 10:16:00;;;;;;;;;29.75;24.50;;;;;8.47;61.50;102314.78;4977502;28;45404;-81
2021/12/20 10:18:27;;;;;;;;;31.50;22.25;;;;;8.46;61.61;102316.56;4976190;28;45535;-80
2021/12/20 10:20:56;;;;;;;;;29.00;24.25;;;;;8.54;60.97;102333.41;4975034;28;46832;-78
2021/12/20 10:23:24;;;;;;;;;25.00;22.75;;;;;8.48;61.11;102312.09;4961585;28;45540;-77
2021/12/20 10:25:55;;;;;;;;;22.00;20.50;;;;;8.54;61.11;102317.34;4975284;28;46336;-78
2021/12/20 10:28:23;;;;;;;;;22.25;20.00;;;;;8.46;60.74;102292.50;4990421;28;45432;-78
2021/12/20 10:31:09;;;;;;;;;24.50;20.25;;;;;8.56;61.17;102310.22;4976969;28;45432;-77
2021/12/20 10:33:35;;;;;;;;;21.75;19.75;;;;;8.45;60.98;102295.19;4978783;28;46727;-79
2021/12/20 10:36:06;;;;;;;;;28.50;19.75;;;;;8.47;60.94;102301.41;4977114;28;45403;-78
2021/12/20 10:38:38;;;;;;;;;25.75;23.00;;;;;8.47;60.33;102310.31;4975756;28;45393;-77
2021/12/20 10:41:24;;;;;;;;;31.00;20.25;;;;;8.48;60.86;102319.22;4975753;28;45558;-78
2021/12/20 10:43:54;;;;;;;;;35.00;31.25;;;;;8.49;61.24;102310.31;4975794;28;47231;-80
2021/12/20 10:46:27;;;;;;;;;32.75;26.25;;;;;8.49;60.85;102308.53;4972489;28;45361;-81
2021/12/20 10:49:04;;;;;;;;;36.50;26.50;;;;;8.44;61.29;102298.78;4976979;28;45480;-78
2021/12/20 10:51:41;;;;;;;;;21.50;16.75;;;;;8.49;60.95;102302.28;4977496;28;45515;-79
2021/12/20 10:54:13;;;;;;;;;18.75;18.75;;;;;8.41;60.67;102277.44;4975324;28;46213;-80
2021/12/20 10:56:58;;;;;;;;;23.25;19.00;;;;;8.49;60.58;102292.50;4973923;28;45374;-78
2021/12/20 10:59:26;;;;;;;;;19.75;12.25;;;;;8.60;60.96;102306.56;4963330;28;45536;-80
2021/12/20 11:04:28;;;;;;;;;21.00;16.00;;;;;8.31;60.31;102258.84;4976719;28;45501;-77
2021/12/20 11:09:42;;;;;;;;;20.25;18.00;;;;;8.51;60.73;102303.13;4976272;28;45515;-79
2021/12/20 11:12:11;;;;;;;;;16.50;12.00;;;;;8.49;60.45;102294.28;4977920;28;45434;-79
2021/12/20 11:14:40;;;;;;;;;16.50;15.00;;;;;8.39;60.32;102280.13;4975249;28;47091;-78
2021/12/20 11:17:08;;;;;;;;;16.75;13.50;;;;;8.51;60.88;102290.66;4975889;28;45516;-75
2021/12/20 11:19:38;;;;;;;;;19.00;14.75;;;;;8.50;60.89;102285.34;4975042;28;45454;-79
2021/12/20 11:22:04;;;;;;;;;17.75;14.50;;;;;8.45;60.83;102290.75;4975957;28;45454;-78
2021/12/20 11:24:49;;;;;;;;;17.50;14.25;;;;;8.45;60.12;102293.41;4970413;28;47424;-73
2021/12/20 11:27:23;;;;;;;;;15.50;13.25;;;;;8.43;60.59;102284.53;4972927;28;45457;-80
2021/12/20 11:29:52;;;;;;;;;16.25;12.50;;;;;8.47;60.45;102277.38;4972305;28;45475;-78
2021/12/20 11:32:19;;;;;;;;;13.00;9.00;;;;;8.45;60.52;102265.81;4974430;28;45600;-77
2021/12/20 11:34:45;;;;;;;;;16.00;9.75;;;;;8.47;60.59;102275.56;4974723;28;45454;-77
2021/12/20 11:37:12;;;;;;;;;14.25;11.75;;;;;8.55;60.25;102278.16;4973096;28;45710;-73
2021/12/20 11:39:39;;;;;;;;;9.75;7.75;;;;;8.56;59.93;102275.47;4973692;28;45467;-76
2021/12/20 11:42:06;;;;;;;;;17.75;12.75;;;;;8.53;59.78;102263.91;4974231;28;45345;-74
2021/12/20 11:44:32;;;;;;;;;13.00;11.75;;;;;8.52;59.56;102260.34;4974303;28;46233;-73
2021/12/20 11:47:07;;;;;;;;;14.50;13.00;;;;;8.47;59.31;102255.97;4974104;28;45540;-76
2021/12/20 11:49:33;;;;;;;;;15.25;13.50;;;;;8.48;59.25;102260.44;4975000;28;45482;-73
2021/12/20 11:52:04;;;;;;;;;13.25;12.25;;;;;8.45;59.45;102252.44;4974990;28;45328;-75
2021/12/20 11:54:34;;;;;;;;;13.75;12.00;;;;;8.40;60.06;102254.31;4974679;28;45464;-75
2021/12/20 11:57:00;;;;;;;;;8.50;2.50;;;;;8.19;59.86;102223.34;4974771;28;45475;-75
2021/12/20 11:59:52;;;;;;;;;17.00;14.00;;;;;8.33;59.95;102251.72;4975495;28;45802;-73
2021/12/20 12:02:24;;;;;;;;;14.75;13.75;;;;;8.33;59.75;102249.03;4974565;28;45344;-75
2021/12/20 12:05:01;;;;;;;;;19.25;15.00;;;;;8.23;60.10;102215.28;4969692;28;47131;-76
2021/12/20 12:07:30;;;;;;;;;15.50;14.50;;;;;8.33;60.36;102225.00;4973208;28;45369;-74
2021/12/20 12:09:57;;;;;;;;;21.50;15.25;;;;;8.36;59.94;102216.03;4971964;28;45392;-75
2021/12/20 12:12:27;;;;;;;;;13.50;12.75;;;;;8.41;60.18;102222.22;4973804;28;45787;-74
2021/12/20 12:15:03;;;;;;;;;19.25;19.00;;;;;8.47;60.09;102227.47;4973999;28;45269;-74
2021/12/20 12:17:53;;;;;;;;;18.25;14.25;;;;;8.52;60.59;102225.59;4976703;28;45412;-74
2021/12/20 12:20:38;;;;;;;;;15.00;11.25;;;;;8.56;59.65;102213.97;4975225;28;45293;-78
2021/12/20 12:23:17;;;;;;;;;23.00;13.00;;;;;8.54;59.81;102217.56;4977846;28;47114;-79
2021/12/20 12:25:47;;;;;;;;;17.50;13.25;;;;;8.50;59.43;102203.38;4979839;28;46037;-75
2021/12/20 12:28:14;;;;;;;;;17.50;16.25;;;;;8.51;59.11;102212.25;4975137;28;45474;-78
2021/12/20 12:30:42;;;;;;;;;15.50;14.25;;;;;8.60;59.71;102214.81;4974342;28;45610;-76
2021/12/20 12:33:13;;;;;;;;;19.75;14.50;;;;;8.64;59.30;102220.09;4973653;28;47250;-76
2021/12/20 12:35:49;;;;;;;;;23.50;17.50;;;;;8.64;58.98;102217.44;4977486;28;47410;-76
2021/12/20 12:38:17;;;;;;;;;18.25;14.75;;;;;8.66;58.99;102214.75;4974321;28;45614;-77
2021/12/20 12:40:49;;;;;;;;;24.75;17.25;;;;;8.66;59.05;102218.28;4976061;28;45488;-76
2021/12/20 12:43:17;;;;;;;;;23.75;19.00;;;;;8.70;58.87;102221.78;4977451;28;46125;-77
2021/12/20 12:45:51;;;;;;;;;20.00;13.75;;;;;8.70;58.64;102225.34;4977244;28;45534;-77
2021/12/20 12:48:39;;;;;;;;;20.50;13.25;;;;;8.74;58.54;102215.50;4977656;28;45376;-77
2021/12/20 12:51:04;;;;;;;;;13.75;12.75;;;;;8.78;58.32;102221.66;4975890;28;45523;-78
2021/12/20 12:53:38;;;;;;;;;23.00;19.00;;;;;8.73;57.67;102203.94;4977127;28;45494;-79
2021/12/20 12:56:25;;;;;;;;;23.50;15.25;;;;;8.78;58.25;102203.84;4976430;28;46069;-77
2021/12/20 12:59:12;;;;;;;;;20.50;13.25;;;;;8.79;57.86;102194.91;4977019;28;45484;-78
2021/12/20 13:01:40;;;;;;;;;20.00;18.00;;;;;8.65;57.46;102184.44;4975977;28;45360;-78
2021/12/20 13:04:05;;;;;;;;;21.00;16.25;;;;;8.79;56.96;102202.94;4977454;28;45466;-78
2021/12/20 13:06:31;;;;;;;;;19.50;13.50;;;;;8.80;57.37;102196.69;4976864;28;46193;-77
2021/12/20 13:08:59;;;;;;;;;17.00;14.75;;;;;8.70;57.55;102165.66;4977525;28;45425;-77
2021/12/20 13:11:25;;;;;;;;;21.25;15.25;;;;;8.79;56.98;102172.63;4976686;28;45519;-78
2021/12/20 13:14:09;;;;;;;;;12.50;12.00;;;;;8.72;57.26;102148.69;4977002;28;45333;-77
2021/12/20 13:16:37;;;;;;;;;14.00;10.50;;;;;8.76;57.11;102157.56;4972370;28;47490;-78
2021/12/20 13:19:04;;;;;;;;;37.25;30.00;;;;;8.86;57.03;102164.50;4975784;28;45475;-76
2021/12/20 13:21:54;;;;;;;;;29.25;23.00;;;;;8.93;57.46;102166.16;4977000;28;45342;-75
2021/12/20 13:24:16;;;;;;;;;21.25;18.50;;;;;8.91;56.94;102159.09;4986028;28;46261;-78
2021/12/20 13:26:42;;;;;;;;;26.75;23.25;;;;;8.89;56.85;102161.78;4974952;28;45644;-79
2021/12/20 13:29:16;;;;;;;;;31.00;23.50;;;;;8.94;57.13;102167.03;4976696;28;45179;-77
2021/12/20 13:31:42;;;;;;;;;24.00;20.25;;;;;9.03;56.46;102181.16;4978601;28;45357;-78
2021/12/20 13:34:11;;;;;;;;;18.75;15.00;;;;;8.95;56.58;102167.00;4977154;28;45302;-75
2021/12/20 13:36:37;;;;;;;;;19.25;17.00;;;;;9.02;56.23;102181.16;4976807;28;45482;-79
2021/12/20 13:39:10;;;;;;;;;21.00;15.25;;;;;8.92;55.74;102172.44;4975529;28;45372;-78
2021/12/20 13:41:38;;;;;;;;;12.50;11.25;;;;;8.91;55.50;102177.81;4975304;28;45437;-75
2021/12/20 13:44:07;;;;;;;;;22.25;16.50;;;;;8.94;56.29;102183.97;4975869;28;45648;-73
2021/12/20 13:49:13;;;;;;;;;11.50;10.00;;;;;9.00;56.22;102185.69;4976199;28;45351;-74
2021/12/20 13:51:53;;;;;;;;;16.75;15.00;;;;;8.94;55.84;102175.94;4967314;28;46559;-74
2021/12/20 13:54:26;;;;;;;;;8.50;7.25;;;;;8.84;55.73;102169.00;4971044;28;45483;-74
2021/12/20 13:56:58;;;;;;;;;14.50;13.00;;;;;8.92;56.10;102195.63;4970573;28;46146;-75
2021/12/20 13:59:34;;;;;;;;;12.00;8.50;;;;;8.90;55.55;102178.72;4973263;28;45920;-74
2021/12/20 14:02:02;;;;;;;;;14.00;12.50;;;;;8.85;56.39;102168.06;4975552;28;45408;-73
2021/12/20 14:04:40;;;;;;;;;14.25;12.75;;;;;8.82;55.71;102165.47;4966477;28;46806;-74
2021/12/20 14:07:36;;;;;;;;;12.75;11.75;;;;;8.93;55.72;102176.00;4963745;28;46483;-77
2021/12/20 14:10:02;;;;;;;;;17.25;14.50;;;;;8.96;55.58;102186.63;4975312;28;45423;-76
2021/12/20 14:12:42;;;;;;;;;13.00;11.25;;;;;8.97;55.41;102181.25;4972934;28;45529;-76
2021/12/20 14:15:18;;;;;;;;;18.25;12.50;;;;;8.98;55.03;102184.81;4976328;28;45364;-76
2021/12/20 14:17:57;;;;;;;;;11.25;10.00;;;;;8.99;55.52;102175.88;4975909;28;46193;-76
2021/12/20 14:20:43;;;;;;;;;16.00;12.00;;;;;8.93;54.97;102160.81;4975818;28;45482;-77
2021/12/20 14:23:14;;;;;;;;;17.00;12.25;;;;;9.04;55.02;102174.00;4964739;28;45694;-76
2021/12/20 14:25:42;;;;;;;;;15.50;13.00;;;;;8.98;54.40;102172.34;4970522;28;46655;-76
2021/12/20 14:28:16;;;;;;;;;17.75;13.00;;;;;8.95;54.57;102169.69;4974680;28;47875;-75
2021/12/20 14:30:48;;;;;;;;;13.50;13.00;;;;;8.97;54.79;102167.00;4975375;28;45495;-76
2021/12/20 14:33:29;;;;;;;;;14.25;13.25;;;;;8.95;54.75;102153.66;4975490;28;45442;-75
2021/12/20 14:36:12;;;;;;;;;14.00;13.00;;;;;9.04;54.51;102164.19;4975416;28;45542;-74
2021/12/20 14:38:52;;;;;;;;;19.00;19.00;;;;;9.02;54.09;102168.69;4975714;28;46223;-74
2021/12/20 14:41:29;;;;;;;;;16.25;15.75;;;;;8.99;54.27;102171.41;4970384;28;45517;-76
2021/12/20 14:44:00;;;;;;;;;14.00;13.00;;;;;8.82;54.33;102144.06;4975386;28;45216;-74
2021/12/20 14:49:00;;;;;;;;;15.00;15.00;;;;;8.85;54.33;102140.44;4970370;28;45886;-74
2021/12/20 14:51:27;;;;;;;;;17.25;13.00;;;;;8.85;54.19;102148.47;4975145;28;45405;-76
2021/12/20 14:54:07;;;;;;;;;17.00;14.25;;;;;8.93;54.10;102174.19;4972862;28;45361;-77
2021/12/20 14:56:32;;;;;;;;;15.00;10.75;;;;;8.91;54.33;102167.09;4975114;28;45431;-78
2021/12/20 14:58:59;;;;;;;;;13.00;12.75;;;;;8.82;53.98;102156.56;4972729;28;48355;-76
2021/12/20 15:01:25;;;;;;;;;19.50;14.75;;;;;8.51;54.37;102116.91;4974403;28;46241;-77
2021/12/20 15:03:51;;;;;;;;;14.50;13.50;;;;;8.73;54.32;102153.13;4974810;28;45439;-74
2021/12/20 15:06:17;;;;;;;;;13.75;11.25;;;;;8.77;53.70;102159.28;4973501;28;45573;-76
2021/12/20 15:08:42;;;;;;;;;4.75;3.00;;;;;8.78;53.92;102157.50;4972844;28;45517;-77
2021/12/20 15:11:08;;;;;;;;;9.25;8.50;;;;;8.69;54.12;102150.50;4974965;28;45420;-78
2021/12/20 15:13:33;;;;;;;;;15.50;11.50;;;;;8.80;53.70;102163.72;4972153;28;45575;-79
2021/12/20 15:15:59;;;;;;;;;13.25;11.00;;;;;8.68;54.27;102133.59;4973336;28;46365;-78
2021/12/20 15:18:24;;;;;;;;;13.25;11.50;;;;;8.80;54.11;102150.34;4972078;28;45546;-80
2021/12/20 15:20:50;;;;;;;;;13.25;11.00;;;;;8.88;54.51;102172.50;4974502;28;45601;-77
2021/12/20 15:23:15;;;;;;;;;14.50;11.75;;;;;8.76;54.32;102140.63;4974230;28;45451;-74
2021/12/20 15:25:41;;;;;;;;;14.00;13.00;;;;;8.77;54.66;102135.22;4969664;28;46398;-76
2021/12/20 15:28:06;;;;;;;;;13.75;10.00;;;;;8.91;54.02;102161.75;4973569;28;45491;-74
2021/12/20 15:30:32;;;;;;;;;11.50;10.50;;;;;8.94;54.17;102167.03;4973733;28;45329;-76
2021/12/20 15:33:00;;;;;;;;;12.50;10.75;;;;;8.96;53.83;102162.56;4971321;28;45400;-75
2021/12/20 15:35:26;;;;;;;;;17.25;14.00;;;;;8.95;54.13;102168.81;4974056;28;46216;-73
2021/12/20 15:37:52;;;;;;;;;13.00;11.50;;;;;8.77;53.62;102132.53;4972565;28;45393;-75
2021/12/20 15:40:18;;;;;;;;;13.75;12.25;;;;;8.85;54.42;102154.69;4973553;28;45643;-75
2021/12/20 15:42:58;;;;;;;;;13.50;10.00;;;;;8.78;54.18;102134.31;4971103;28;45439;-75
2021/12/20 15:45:32;;;;;;;;;13.75;9.00;;;;;8.82;54.30;102141.41;4974140;28;45402;-76
2021/12/20 15:47:58;;;;;;;;;13.75;12.00;;;;;8.85;53.41;102144.00;4973292;28;46128;-77
2021/12/20 15:50:24;;;;;;;;;8.00;7.25;;;;;8.84;54.86;102150.28;4973897;28;45390;-79
2021/12/20 15:52:50;;;;;;;;;10.00;8.00;;;;;8.65;53.73;102117.63;4974246;28;45333;-79
2021/12/20 15:55:16;;;;;;;;;10.00;10.00;;;;;8.83;53.71;102155.66;4973930;28;45574;-78
2021/12/20 15:57:42;;;;;;;;;8.50;7.00;;;;;8.79;53.53;102141.44;4974035;28;45462;-75
2021/12/20 16:00:08;;;;;;;;;8.25;6.25;;;;;8.83;54.00;102153.88;4973773;28;45250;-75
2021/12/20 16:02:35;;;;;;;;;8.75;8.00;;;;;8.75;53.70;102130.84;4974247;28;45329;-77
2021/12/20 16:05:02;;;;;;;;;8.25;8.25;;;;;8.82;53.88;102141.41;4974770;28;46580;-74
2021/12/20 16:07:27;;;;;;;;;10.25;8.25;;;;;8.76;53.57;102136.16;4974654;28;46022;-74
2021/12/20 16:09:53;;;;;;;;;13.50;8.75;;;;;8.76;53.43;102140.63;4975836;28;45511;-75
2021/12/20 16:12:18;;;;;;;;;9.25;9.25;;;;;8.81;54.24;102149.44;4977505;28;45715;-73
2021/12/20 16:14:43;;;;;;;;;14.25;9.25;;;;;8.78;53.48;102142.34;4977476;28;45570;-75
2021/12/20 16:17:09;;;;;;;;;8.50;7.00;;;;;8.77;53.62;102132.53;4978265;28;46103;-76
2021/12/20 16:19:34;;;;;;;;;8.00;8.00;;;;;8.84;53.77;102144.06;4976418;28;45311;-74
2021/12/20 16:22:00;;;;;;;;;7.25;5.25;;;;;8.70;53.15;102130.88;4978285;28;45647;-74
2021/12/20 16:24:25;;;;;;;;;8.25;4.00;;;;;8.67;54.44;102131.84;4976835;28;45601;-78
2021/12/20 16:26:50;;;;;;;;;8.25;6.00;;;;;8.69;54.05;102143.38;4978125;28;46088;-77
2021/12/20 16:29:16;;;;;;;;;6.75;6.75;;;;;8.70;53.81;102163.84;4975462;28;45333;-77
2021/12/20 16:31:41;;;;;;;;;6.75;6.75;;;;;8.65;54.13;102157.72;4977595;28;45550;-78
2021/12/20 16:34:07;;;;;;;;;6.00;6.00;;;;;8.52;53.69;102148.09;4977578;28;45539;-78
2021/12/20 16:36:32;;;;;;;;;6.00;4.00;;;;;8.58;54.33;102157.84;4977802;28;45733;-77
2021/12/20 16:38:58;;;;;;;;;8.75;7.50;;;;;8.52;54.14;102141.84;4977569;28;45416;-78
2021/12/20 16:41:23;;;;;;;;;7.00;7.00;;;;;8.52;54.51;102142.75;4977655;28;45202;-78
2021/12/20 16:43:49;;;;;;;;;8.00;6.00;;;;;8.51;54.49;102145.44;4977804;28;45284;-78
2021/12/20 16:46:16;;;;;;;;;7.00;7.00;;;;;8.59;54.44;102156.94;4977419;28;45367;-78
2021/12/20 16:48:45;;;;;;;;;8.25;7.00;;;;;8.49;54.55;102148.16;4977691;28;45487;-78
2021/12/20 16:51:13;;;;;;;;;8.75;7.00;;;;;8.48;54.47;102140.16;4977875;28;45497;-73
2021/12/20 16:53:39;;;;;;;;;7.75;7.00;;;;;8.56;54.40;102148.94;4976311;28;45619;-83
2021/12/20 16:56:05;;;;;;;;;12.00;8.00;;;;;8.59;53.93;102155.09;4976058;28;46472;-79
2021/12/20 16:58:32;;;;;;;;;8.50;8.50;;;;;8.48;53.54;102133.03;4976490;28;45496;-77
2021/12/20 17:00:59;;;;;;;;;9.00;7.50;;;;;8.53;53.53;102144.50;4976270;28;45397;-79
2021/12/20 17:08:19;;;;;;;;;6.00;6.00;;;;;8.60;52.80;102154.22;4977247;28;45203;-79
2021/12/20 17:10:47;;;;;;;;;4.50;4.25;;;;;8.62;53.33;102148.84;4977246;28;45304;-77
2021/12/20 17:13:15;;;;;;;;;6.00;6.00;;;;;8.49;53.53;102129.44;4977237;28;45702;-78
2021/12/20 17:15:41;;;;;;;;;3.00;3.00;;;;;8.64;53.23;102153.25;4965892;28;46912;-78